Time;durP1;ratioP1;P1;durP2;ratioP2;P2;SDS_P1;SDS_P2;PMS_P1;PMS_P2;Temp;Humidity;BMP_temperature;BMP_pressure;BME280_temperature;BME280_humidity;BME280_pressure;Samples;Min_cycle;Max_cycle;Signal;HPM_P1;HPM_P2
2023/09/29 16:44:02;;;;;;;3.33;0.88;;;;;;;;;;7248022;19;21864;-72
2023/09/29 16:46:27;;;;;;;2.17;0.70;;;;;;;;;;7351026;19;20053;-73
2023/09/29 16:48:52;;;;;;;2.10;0.90;;;;;;;;;;7337786;19;20074;-72
2023/09/29 16:51:21;;;;;;;1.33;0.60;;;;;;;;;;7359677;19;20281;-72
2023/09/29 16:53:46;;;;;;;2.15;0.60;;;;;;;;;;7327843;19;21007;-73
2023/09/29 16:56:11;;;;;;;2.93;0.70;;;;;;;;;;7345480;19;20521;-71
2023/09/29 16:58:38;;;;;;;2.00;0.70;;;;;;;;;;7335463;19;20134;-74
2023/09/29 17:01:03;;;;;;;2.25;0.70;;;;;;;;;;7356365;19;20389;-73
2023/09/29 17:03:29;;;;;;;2.45;0.65;;;;;;;;;;7342293;19;20688;-74
2023/09/29 17:05:54;;;;;;;2.30;0.88;;;;;;;;;;7359772;19;20442;-74
2023/09/29 17:08:19;;;;;;;2.05;0.70;;;;;;;;;;7351910;19;20002;-73
2023/09/29 17:10:44;;;;;;;2.20;0.77;;;;;;;;;;7361389;19;20074;-72
2023/09/29 17:13:10;;;;;;;2.53;1.00;;;;;;;;;;7356058;19;20440;-72
2023/09/29 17:15:38;;;;;;;3.22;1.17;;;;;;;;;;7356868;19;20550;-72
2023/09/29 17:18:03;;;;;;;2.45;0.95;;;;;;;;;;7339450;19;20007;-72
2023/09/29 17:20:28;;;;;;;3.67;1.27;;;;;;;;;;7356037;19;20377;-71
2023/09/29 17:22:53;;;;;;;5.33;1.80;;;;;;;;;;7341057;19;20056;-72
2023/09/29 17:25:18;;;;;;;3.73;1.70;;;;;;;;;;7354252;19;20446;-73
2023/09/29 17:27:44;;;;;;;5.70;2.40;;;;;;;;;;7362777;19;20059;-73
2023/09/29 17:30:10;;;;;;;6.50;2.40;;;;;;;;;;7361152;19;19995;-72
2023/09/29 17:32:35;;;;;;;6.57;2.63;;;;;;;;;;7361754;19;20417;-73
2023/09/29 17:35:00;;;;;;;6.20;2.92;;;;;;;;;;7341368;19;20003;-72
2023/09/29 17:37:30;;;;;;;6.33;2.87;;;;;;;;;;7359121;19;20005;-72
2023/09/29 17:39:55;;;;;;;7.50;3.30;;;;;;;;;;7364195;19;20236;-72
2023/09/29 17:42:20;;;;;;;6.67;3.87;;;;;;;;;;7354341;19;19995;-72
2023/09/29 17:44:46;;;;;;;8.05;3.28;;;;;;;;;;7359732;19;19999;-72
2023/09/29 17:47:11;;;;;;;7.32;3.78;;;;;;;;;;7353125;19;20352;-72
2023/09/29 17:49:37;;;;;;;7.53;3.58;;;;;;;;;;7357675;19;19999;-72
2023/09/29 17:52:02;;;;;;;7.82;3.50;;;;;;;;;;7352257;19;20436;-72
2023/09/29 17:54:28;;;;;;;7.35;4.18;;;;;;;;;;7354414;19;19994;-72
2023/09/29 17:56:53;;;;;;;7.25;4.13;;;;;;;;;;7352443;19;20017;-72
2023/09/29 17:59:18;;;;;;;7.80;4.57;;;;;;;;;;7349524;19;20101;-72
2023/09/29 18:01:44;;;;;;;8.43;4.27;;;;;;;;;;7363814;19;19998;-72
2023/09/29 18:04:09;;;;;;;7.75;4.47;;;;;;;;;;7359033;19;20252;-72
2023/09/29 18:06:35;;;;;;;7.28;4.07;;;;;;;;;;7347272;19;20010;-72
2023/09/29 18:09:05;;;;;;;8.65;4.35;;;;;;;;;;7360870;19;20006;-72
2023/09/29 18:11:32;;;;;;;6.28;3.72;;;;;;;;;;7356426;19;20464;-72
2023/09/29 18:13:57;;;;;;;5.95;3.65;;;;;;;;;;7328984;19;20444;-72
2023/09/29 18:16:22;;;;;;;6.68;4.20;;;;;;;;;;7345147;19;20415;-72
2023/09/29 18:18:48;;;;;;;7.70;3.63;;;;;;;;;;7336089;19;20671;-72
2023/09/29 18:21:13;;;;;;;7.38;4.03;;;;;;;;;;7339085;19;20437;-72
2023/09/29 18:23:38;;;;;;;6.30;3.87;;;;;;;;;;7338937;19;19990;-72
2023/09/29 18:26:03;;;;;;;7.28;3.90;;;;;;;;;;7358808;19;20227;-72
2023/09/29 18:28:31;;;;;;;7.47;3.70;;;;;;;;;;7357320;19;20574;-72
2023/09/29 18:30:56;;;;;;;6.65;3.33;;;;;;;;;;7352693;19;20304;-74
2023/09/29 18:33:22;;;;;;;6.82;3.65;;;;;;;;;;7359735;19;20059;-74
2023/09/29 18:35:47;;;;;;;6.43;3.60;;;;;;;;;;7363328;19;19998;-73
2023/09/29 18:38:12;;;;;;;7.57;3.47;;;;;;;;;;7351012;19;20011;-73
2023/09/29 18:40:38;;;;;;;5.90;3.00;;;;;;;;;;7356581;19;20554;-73
2023/09/29 18:43:04;;;;;;;6.80;3.78;;;;;;;;;;7346310;19;20379;-73
2023/09/29 18:45:30;;;;;;;7.60;3.90;;;;;;;;;;7354926;19;20337;-73
2023/09/29 18:47:55;;;;;;;7.22;4.13;;;;;;;;;;7356871;19;20035;-73
2023/09/29 18:50:21;;;;;;;8.98;5.10;;;;;;;;;;7348779;19;20421;-74
2023/09/29 18:52:46;;;;;;;9.27;5.20;;;;;;;;;;7353467;19;20364;-73
2023/09/29 18:55:11;;;;;;;11.55;5.47;;;;;;;;;;7353389;19;20009;-73
2023/09/29 18:57:36;;;;;;;8.77;5.32;;;;;;;;;;7358244;19;20138;-73
2023/09/29 19:00:04;;;;;;;10.67;5.53;;;;;;;;;;7347869;19;20353;-73
2023/09/29 19:02:29;;;;;;;10.23;5.35;;;;;;;;;;7346368;19;20331;-73
2023/09/29 19:04:55;;;;;;;11.38;5.80;;;;;;;;;;7356456;19;19999;-73
2023/09/29 19:07:21;;;;;;;12.40;6.80;;;;;;;;;;7353670;19;20601;-73
2023/09/29 19:09:47;;;;;;;13.20;6.85;;;;;;;;;;7341362;19;20027;-74
2023/09/29 19:12:12;;;;;;;11.02;7.10;;;;;;;;;;7354847;19;20087;-75
2023/09/29 19:14:37;;;;;;;11.93;6.95;;;;;;;;;;7360450;19;20118;-73
2023/09/29 19:17:03;;;;;;;15.18;7.43;;;;;;;;;;7331438;19;20066;-73
2023/09/29 19:19:28;;;;;;;14.88;7.50;;;;;;;;;;7353278;19;20112;-73
2023/09/29 19:21:53;;;;;;;12.87;7.53;;;;;;;;;;7350678;19;20246;-73
2023/09/29 19:24:19;;;;;;;13.60;7.55;;;;;;;;;;7353104;19;20688;-73
2023/09/29 19:26:44;;;;;;;11.23;7.05;;;;;;;;;;7361448;19;20391;-73
2023/09/29 19:29:09;;;;;;;14.07;7.40;;;;;;;;;;7359698;19;20349;-73
2023/09/29 19:31:35;;;;;;;15.75;7.72;;;;;;;;;;7342219;19;20508;-72
2023/09/29 19:34:01;;;;;;;14.20;8.50;;;;;;;;;;7322225;19;20541;-74
2023/09/29 19:36:28;;;;;;;15.83;8.13;;;;;;;;;;7358031;19;20011;-74
2023/09/29 19:38:53;;;;;;;13.68;7.93;;;;;;;;;;7344432;19;20258;-73
2023/09/29 19:41:18;;;;;;;14.73;7.80;;;;;;;;;;7331071;19;20002;-73
2023/09/29 19:43:43;;;;;;;17.07;9.40;;;;;;;;;;7349761;19;20018;-74
2023/09/29 19:46:09;;;;;;;16.38;8.60;;;;;;;;;;7338351;19;20417;-73
2023/09/29 19:48:34;;;;;;;13.90;8.63;;;;;;;;;;7351824;19;20034;-74
2023/09/29 19:51:06;;;;;;;15.90;9.45;;;;;;;;;;7344842;19;20025;-75
2023/09/29 19:53:32;;;;;;;12.35;8.90;;;;;;;;;;7333331;19;20007;-74
2023/09/29 19:55:58;;;;;;;14.82;8.63;;;;;;;;;;7350906;19;20578;-74
2023/09/29 19:58:27;;;;;;;13.23;8.65;;;;;;;;;;7356510;19;20101;-74
2023/09/29 20:00:52;;;;;;;15.68;9.35;;;;;;;;;;7353835;19;20022;-74
2023/09/29 20:03:17;;;;;;;18.58;10.10;;;;;;;;;;7346972;19;20029;-74
2023/09/29 20:05:44;;;;;;;15.40;10.07;;;;;;;;;;7360692;19;20504;-74
2023/09/29 20:08:13;;;;;;;16.95;9.98;;;;;;;;;;7353291;19;20339;-74
2023/09/29 20:10:38;;;;;;;16.92;10.65;;;;;;;;;;7353298;19;20002;-73
2023/09/29 20:13:04;;;;;;;18.42;11.05;;;;;;;;;;7355614;19;20376;-74
2023/09/29 20:15:30;;;;;;;13.73;9.45;;;;;;;;;;7360964;19;20129;-74
2023/09/29 20:17:55;;;;;;;13.20;8.50;;;;;;;;;;7356140;19;20360;-74
2023/09/29 20:20:20;;;;;;;15.67;10.37;;;;;;;;;;7352467;19;20002;-74
2023/09/29 20:22:46;;;;;;;18.10;10.67;;;;;;;;;;7341083;19;20240;-73
2023/09/29 20:25:11;;;;;;;15.48;9.90;;;;;;;;;;7351444;19;20005;-74
2023/09/29 20:27:36;;;;;;;19.23;11.00;;;;;;;;;;7363612;19;19991;-74
2023/09/29 20:30:02;;;;;;;19.45;11.85;;;;;;;;;;7338265;19;20570;-73
2023/09/29 20:32:28;;;;;;;20.92;12.40;;;;;;;;;;7361449;19;20357;-73
2023/09/29 20:34:54;;;;;;;15.53;10.50;;;;;;;;;;7368500;19;20038;-74
2023/09/29 20:37:20;;;;;;;18.17;11.55;;;;;;;;;;7343102;19;20231;-74
2023/09/29 20:39:45;;;;;;;16.38;10.40;;;;;;;;;;7338065;19;20017;-74
2023/09/29 20:42:12;;;;;;;16.30;10.55;;;;;;;;;;7349246;19;20380;-73
2023/09/29 20:44:37;;;;;;;16.92;10.50;;;;;;;;;;7344622;19;20425;-73
2023/09/29 20:47:02;;;;;;;16.33;10.70;;;;;;;;;;7353932;19;20785;-73
2023/09/29 20:49:28;;;;;;;18.58;10.77;;;;;;;;;;7334232;19;19999;-73
2023/09/29 20:51:53;;;;;;;16.52;10.77;;;;;;;;;;7340248;19;20464;-74
2023/09/29 20:54:19;;;;;;;16.87;11.00;;;;;;;;;;7322652;19;19994;-74
2023/09/29 20:56:44;;;;;;;16.08;10.77;;;;;;;;;;7324264;19;20586;-74
2023/09/29 20:59:09;;;;;;;15.67;10.20;;;;;;;;;;7351734;19;20092;-73
2023/09/29 21:01:34;;;;;;;21.43;11.30;;;;;;;;;;7341780;19;20592;-74
2023/09/29 21:04:05;;;;;;;17.77;11.40;;;;;;;;;;7355872;19;20275;-73
2023/09/29 21:06:31;;;;;;;16.60;10.98;;;;;;;;;;7354572;19;20002;-73
2023/09/29 21:08:56;;;;;;;23.27;11.82;;;;;;;;;;7359947;19;20044;-73
2023/09/29 21:11:21;;;;;;;19.47;12.17;;;;;;;;;;7360739;19;20070;-74
2023/09/29 21:13:46;;;;;;;18.38;11.75;;;;;;;;;;7352128;19;20232;-74
2023/09/29 21:16:12;;;;;;;23.03;12.17;;;;;;;;;;7351887;19;19994;-73
2023/09/29 21:18:38;;;;;;;18.30;12.10;;;;;;;;;;7347350;19;20167;-73
2023/09/29 21:21:03;;;;;;;20.38;13.05;;;;;;;;;;7342999;19;20538;-74
2023/09/29 21:23:29;;;;;;;23.03;12.23;;;;;;;;;;7338379;19;19998;-73
2023/09/29 21:25:54;;;;;;;16.55;11.20;;;;;;;;;;7355303;19;20216;-74
2023/09/29 21:28:19;;;;;;;19.97;11.70;;;;;;;;;;7358149;19;19998;-73
2023/09/29 21:30:45;;;;;;;18.88;10.88;;;;;;;;;;7341100;19;20335;-73
2023/09/29 21:33:10;;;;;;;17.53;11.20;;;;;;;;;;7334693;19;20048;-73
2023/09/29 21:35:36;;;;;;;18.27;11.27;;;;;;;;;;7355983;19;20188;-73
2023/09/29 21:38:01;;;;;;;18.97;11.87;;;;;;;;;;7355696;19;20023;-73
2023/09/29 21:40:26;;;;;;;23.30;11.53;;;;;;;;;;7354852;19;20612;-73
2023/09/29 21:42:51;;;;;;;18.80;10.30;;;;;;;;;;7354785;19;20255;-73
2023/09/29 21:45:16;;;;;;;20.37;11.30;;;;;;;;;;7352866;19;19995;-73
2023/09/29 21:47:41;;;;;;;23.53;12.27;;;;;;;;;;7359814;19;19991;-73
2023/09/29 21:50:07;;;;;;;19.40;11.60;;;;;;;;;;7354002;19;20254;-73
2023/09/29 21:52:32;;;;;;;18.58;10.48;;;;;;;;;;7352700;19;20662;-73
2023/09/29 21:54:57;;;;;;;16.83;10.37;;;;;;;;;;7364478;19;20010;-73
2023/09/29 21:57:22;;;;;;;27.95;12.50;;;;;;;;;;7358658;19;20322;-73
2023/09/29 21:59:48;;;;;;;17.75;10.88;;;;;;;;;;7356755;19;20475;-73
2023/09/29 22:02:13;;;;;;;18.43;11.20;;;;;;;;;;7301861;19;20116;-73
2023/09/29 22:04:39;;;;;;;16.67;10.37;;;;;;;;;;7335926;19;20281;-73
2023/09/29 22:07:04;;;;;;;19.05;11.30;;;;;;;;;;7333360;19;20550;-71
2023/09/29 22:09:30;;;;;;;15.55;10.38;;;;;;;;;;7345736;19;20002;-73
2023/09/29 22:11:55;;;;;;;21.55;11.80;;;;;;;;;;7360411;19;20037;-73
2023/09/29 22:14:20;;;;;;;19.63;10.70;;;;;;;;;;7357527;19;20273;-73
2023/09/29 22:16:45;;;;;;;16.10;10.73;;;;;;;;;;7360871;19;20688;-73
2023/09/29 22:19:10;;;;;;;17.37;10.63;;;;;;;;;;7354389;19;20003;-74
2023/09/29 22:21:35;;;;;;;17.97;10.47;;;;;;;;;;7352055;19;20864;-73
2023/09/29 22:24:01;;;;;;;15.70;10.68;;;;;;;;;;7355318;19;20263;-73
2023/09/29 22:26:26;;;;;;;17.88;10.80;;;;;;;;;;7361328;19;20118;-73
2023/09/29 22:28:52;;;;;;;13.70;9.10;;;;;;;;;;7360409;19;20318;-73
2023/09/29 22:31:17;;;;;;;13.77;9.37;;;;;;;;;;7359770;19;20365;-73
2023/09/29 22:33:42;;;;;;;16.53;10.43;;;;;;;;;;7359868;19;20009;-73
2023/09/29 22:36:07;;;;;;;15.93;10.65;;;;;;;;;;7351041;19;21007;-74
2023/09/29 22:38:33;;;;;;;16.70;10.68;;;;;;;;;;7349682;19;20009;-73
2023/09/29 22:40:58;;;;;;;17.85;10.70;;;;;;;;;;7351224;19;20024;-73
2023/09/29 22:43:23;;;;;;;17.35;10.88;;;;;;;;;;7354892;19;19994;-73
2023/09/29 22:45:48;;;;;;;20.40;11.50;;;;;;;;;;7352451;19;20588;-73
2023/09/29 22:48:13;;;;;;;20.10;12.93;;;;;;;;;;7357206;19;20965;-73
2023/09/29 22:50:39;;;;;;;22.92;13.20;;;;;;;;;;7355915;19;20456;-73
2023/09/29 22:53:05;;;;;;;19.30;12.13;;;;;;;;;;7351147;19;20006;-74
2023/09/29 22:55:30;;;;;;;18.35;11.73;;;;;;;;;;7350122;19;20224;-73
2023/09/29 22:57:55;;;;;;;18.13;12.63;;;;;;;;;;7355478;19;20062;-73
2023/09/29 23:00:20;;;;;;;23.17;11.53;;;;;;;;;;7349612;19;20290;-73
2023/09/29 23:02:45;;;;;;;21.17;11.07;;;;;;;;;;7347232;19;20022;-73
2023/09/29 23:05:11;;;;;;;18.10;11.70;;;;;;;;;;7350934;19;20223;-73
2023/09/29 23:07:37;;;;;;;19.38;11.65;;;;;;;;;;7347918;19;20975;-73
2023/09/29 23:10:05;;;;;;;20.10;12.05;;;;;;;;;;7340534;19;20010;-73
2023/09/29 23:12:30;;;;;;;19.38;12.57;;;;;;;;;;7342186;19;20007;-74
2023/09/29 23:14:56;;;;;;;20.80;12.40;;;;;;;;;;7353274;19;20271;-73
2023/09/29 23:17:21;;;;;;;16.42;11.18;;;;;;;;;;7354606;19;20239;-73
2023/09/29 23:19:46;;;;;;;19.63;13.50;;;;;;;;;;7352240;19;20063;-73
2023/09/29 23:22:12;;;;;;;21.33;13.27;;;;;;;;;;7351605;19;20455;-73
2023/09/29 23:24:37;;;;;;;18.52;12.00;;;;;;;;;;7347991;19;20271;-73
2023/09/29 23:27:02;;;;;;;21.60;12.47;;;;;;;;;;7352011;19;20002;-73
2023/09/29 23:29:28;;;;;;;19.00;12.48;;;;;;;;;;7347145;19;20343;-73
2023/09/29 23:31:56;;;;;;;21.52;12.25;;;;;;;;;;7351734;19;20011;-73
2023/09/29 23:34:21;;;;;;;22.17;12.10;;;;;;;;;;7347889;19;20077;-73
2023/09/29 23:36:46;;;;;;;23.10;11.40;;;;;;;;;;7327807;19;20086;-73
2023/09/29 23:39:13;;;;;;;17.73;10.73;;;;;;;;;;7347526;19;20351;-73
2023/09/29 23:41:39;;;;;;;17.20;11.60;;;;;;;;;;7352764;19;20011;-73
2023/09/29 23:44:05;;;;;;;16.58;10.20;;;;;;;;;;7358440;19;20052;-73
2023/09/29 23:46:31;;;;;;;18.10;12.00;;;;;;;;;;7340857;19;20002;-73
2023/09/29 23:48:56;;;;;;;19.55;11.98;;;;;;;;;;7354678;19;20144;-73
2023/09/29 23:51:22;;;;;;;15.52;10.27;;;;;;;;;;7352131;19;20629;-73
2023/09/29 23:53:47;;;;;;;19.80;12.50;;;;;;;;;;7316150;19;20378;-73
2023/09/29 23:56:12;;;;;;;20.93;12.67;;;;;;;;;;7353022;19;20250;-73
2023/09/29 23:58:37;;;;;;;19.07;12.50;;;;;;;;;;7363394;19;20317;-73
